Benedito Leite, Brazil
Current Conditions -  °F | °C
As of 6:00 PM on Monday 24 Nov 2014 (Local Time) from SBTE Reporting Station
Scattered Clouds Scattered Clouds  
Wind Chill: 93°   Ceiling: Unl
Heat Index: 93°   Visibility: 6mi
Dew Point: 61°   Wind: 5mph
Humidity: 34%   Direction: 240°WSW
Pressure: 29.77"   Gusts: NA
Location:  7.22°S, 44.57°W
Report Text: SBTE 242100Z 24004KT 9999 FEW033 SCT080 34/16 Q1008
Loading
Personal Weather Stations






























Interactive Weather Map New forecast layout! Learn more

10-Day Weather Forecast

Advertisements
Track Severe Weather on mobile